createdAt,value
2019-03-15T00:01:16.160Z,32.27
2019-03-15T00:03:47.914Z,33.40
2019-03-15T00:06:19.591Z,31.13
2019-03-15T00:08:51.274Z,29.30
2019-03-15T00:11:23.099Z,28.60
2019-03-15T00:13:54.848Z,30.60
2019-03-15T00:16:26.525Z,29.70
2019-03-15T00:18:59.200Z,28.97
2019-03-15T00:21:30.800Z,28.83
2019-03-15T00:24:02.622Z,31.90
2019-03-15T00:26:34.268Z,37.07
2019-03-15T00:29:06.043Z,35.90
2019-03-15T00:31:37.905Z,34.73
2019-03-15T00:34:09.560Z,37.30
2019-03-15T00:36:41.429Z,31.70
2019-03-15T00:39:13.072Z,36.17
2019-03-15T00:41:44.644Z,33.40
2019-03-15T00:44:16.481Z,35.67
2019-03-15T00:46:47.953Z,33.27
2019-03-15T00:49:19.338Z,31.07
2019-03-15T00:51:51.701Z,32.67
2019-03-15T00:54:23.094Z,34.13
2019-03-15T00:56:54.378Z,34.50
2019-03-15T00:59:25.937Z,32.87
2019-03-15T01:01:57.287Z,36.77
2019-03-15T01:04:28.941Z,35.33
2019-03-15T01:07:00.804Z,42.53
2019-03-15T01:09:32.357Z,36.57
2019-03-15T01:12:03.821Z,40.33
2019-03-15T01:14:35.778Z,41.53
2019-03-15T01:17:07.128Z,38.43
2019-03-15T01:19:39.707Z,26.63
2019-03-15T01:22:11.161Z,31.87
2019-03-15T01:24:42.917Z,30.97
2019-03-15T01:27:14.667Z,28.27
2019-03-15T01:29:47.347Z,33.87
2019-03-15T01:32:18.911Z,31.50
2019-03-15T01:34:50.511Z,26.37
2019-03-15T01:37:22.333Z,32.17
2019-03-15T01:39:53.867Z,37.00
2019-03-15T01:42:25.757Z,28.63
2019-03-15T01:44:57.409Z,33.20
2019-03-15T01:47:29.273Z,32.57
2019-03-15T01:50:00.833Z,37.33
2019-03-15T01:52:32.360Z,31.60
2019-03-15T01:55:05.770Z,30.17
2019-03-15T01:57:37.341Z,35.10
2019-03-15T02:00:10.505Z,32.73
2019-03-15T02:02:42.293Z,36.47
2019-03-15T02:05:13.949Z,35.00
2019-03-15T02:07:45.795Z,32.43
2019-03-15T02:10:17.469Z,31.17
2019-03-15T02:12:48.918Z,30.53
2019-03-15T02:15:20.572Z,29.87
2019-03-15T02:17:52.705Z,29.67
2019-03-15T02:20:24.377Z,32.00
2019-03-15T02:22:55.845Z,38.47
2019-03-15T02:25:27.561Z,40.23
2019-03-15T02:27:59.574Z,35.67
2019-03-15T02:30:31.213Z,34.90
2019-03-15T02:33:02.703Z,37.50
2019-03-15T02:35:34.338Z,41.67
2019-03-15T02:38:05.916Z,35.27
2019-03-15T02:40:37.444Z,35.20
2019-03-15T02:43:10.228Z,36.17
2019-03-15T02:45:41.890Z,32.47
2019-03-15T02:48:13.847Z,29.63
2019-03-15T02:50:45.445Z,33.07
2019-03-15T02:53:17.267Z,35.20
2019-03-15T02:55:49.031Z,31.37
2019-03-15T02:58:20.593Z,32.77
2019-03-15T03:00:52.327Z,32.07
2019-03-15T03:03:23.894Z,30.93
2019-03-15T03:05:55.450Z,27.53
2019-03-15T03:08:27.312Z,26.47
2019-03-15T03:10:58.972Z,28.97
2019-03-15T03:13:30.646Z,28.77
2019-03-15T03:16:03.503Z,29.77
2019-03-15T03:18:35.387Z,24.50
2019-03-15T03:21:06.974Z,26.97
2019-03-15T03:23:38.706Z,24.23
2019-03-15T03:26:12.796Z,29.80
2019-03-15T03:28:44.887Z,28.27
2019-03-15T03:31:16.483Z,31.33
2019-03-15T03:33:47.984Z,25.20
2019-03-15T03:36:19.751Z,30.50
2019-03-15T03:38:51.389Z,26.67
2019-03-15T03:41:23.233Z,25.90
2019-03-15T03:43:54.925Z,27.93
2019-03-15T03:46:27.359Z,26.30
2019-03-15T03:48:58.834Z,27.73
2019-03-15T03:51:30.394Z,26.33
2019-03-15T03:54:01.946Z,27.43
2019-03-15T03:56:33.821Z,26.40
2019-03-15T03:59:05.484Z,25.07
2019-03-15T04:01:37.340Z,28.00
2019-03-15T04:04:08.803Z,33.20
2019-03-15T04:06:40.459Z,35.83
2019-03-15T04:09:12.006Z,35.80
2019-03-15T04:11:54.913Z,34.10
2019-03-15T04:14:16.676Z,36.87
2019-03-15T04:16:48.308Z,38.97
2019-03-15T04:19:20.173Z,33.50
2019-03-15T04:21:51.811Z,32.97
2019-03-15T04:24:23.688Z,30.27
2019-03-15T04:26:55.335Z,30.27
2019-03-15T04:29:27.218Z,28.97
2019-03-15T04:31:58.863Z,31.00
2019-03-15T04:34:30.425Z,31.27
2019-03-15T04:37:02.261Z,30.87
2019-03-15T04:39:33.818Z,32.20
2019-03-15T04:42:05.478Z,34.20
2019-03-15T04:44:37.259Z,40.33
2019-03-15T04:47:10.228Z,34.40
2019-03-15T04:49:41.679Z,40.53
2019-03-15T04:52:13.542Z,34.83
2019-03-15T04:54:45.320Z,34.53
2019-03-15T04:57:16.954Z,34.30
2019-03-15T04:59:48.630Z,36.63
2019-03-15T05:02:20.679Z,35.10
2019-03-15T05:04:52.248Z,33.97
2019-03-15T05:07:23.911Z,37.17
2019-03-15T05:09:55.241Z,41.87
2019-03-15T05:12:27.055Z,39.67
2019-03-15T05:14:58.884Z,41.73
2019-03-15T05:17:30.519Z,42.57
2019-03-15T05:20:02.397Z,36.07
2019-03-15T05:22:34.271Z,33.53
2019-03-15T05:25:07.177Z,32.37
2019-03-15T05:27:38.584Z,28.97
2019-03-15T05:30:11.483Z,28.23
2019-03-15T05:32:42.961Z,27.27
2019-03-15T05:35:14.698Z,28.13
2019-03-15T05:37:46.351Z,24.03
2019-03-15T05:40:17.956Z,24.07
2019-03-15T05:42:49.463Z,22.67
2019-03-15T05:45:21.114Z,23.60
2019-03-15T05:47:52.752Z,24.87
2019-03-15T05:50:24.640Z,25.97
2019-03-15T05:52:56.233Z,24.73
2019-03-15T05:55:27.939Z,24.47
2019-03-15T05:57:59.722Z,24.47
2019-03-15T06:00:31.679Z,22.23
2019-03-15T06:03:06.324Z,22.67
2019-03-15T06:05:38.291Z,21.50
2019-03-15T06:08:10.123Z,24.80
2019-03-15T06:10:42.083Z,22.58
2019-03-15T06:13:13.662Z,23.25
2019-03-15T06:15:46.171Z,21.73
2019-03-15T06:18:17.673Z,25.17
2019-03-15T06:20:49.324Z,22.95
2019-03-15T06:23:20.881Z,23.12
2019-03-15T06:25:52.665Z,23.02
2019-03-15T06:28:24.032Z,23.27
2019-03-15T06:30:55.428Z,19.48
2019-03-15T06:33:28.717Z,19.73
2019-03-15T06:36:00.102Z,19.30
2019-03-15T06:38:33.516Z,18.87
2019-03-15T06:41:05.063Z,22.02
2019-03-15T06:43:36.606Z,22.00
2019-03-15T06:46:08.367Z,20.40
2019-03-15T06:48:40.008Z,21.25
2019-03-15T06:51:11.683Z,20.57
2019-03-15T06:53:43.440Z,22.93
2019-03-15T06:56:14.998Z,21.00
2019-03-15T06:58:46.907Z,21.17
2019-03-15T07:01:18.691Z,17.15
2019-03-15T07:03:50.561Z,17.35
2019-03-15T07:06:22.059Z,23.65
2019-03-15T07:08:53.689Z,19.07
2019-03-15T07:11:25.457Z,21.55
2019-03-15T07:13:57.117Z,18.67
2019-03-15T07:16:29.546Z,21.95
2019-03-15T07:19:00.928Z,16.87
2019-03-15T07:21:32.574Z,15.53
2019-03-15T07:24:04.126Z,15.43
2019-03-15T07:26:36.025Z,17.80
2019-03-15T07:29:07.568Z,16.30
2019-03-15T07:31:39.224Z,14.75
2019-03-15T07:34:13.641Z,15.50
2019-03-15T07:36:44.074Z,18.62
2019-03-15T07:39:16.122Z,15.68
2019-03-15T07:41:47.590Z,18.45
2019-03-15T07:44:19.275Z,15.80
2019-03-15T07:46:51.293Z,15.72
2019-03-15T07:49:23.268Z,16.48
2019-03-15T07:51:54.841Z,13.93
2019-03-15T07:54:37.394Z,16.77
2019-03-15T07:56:59.570Z,18.42
2019-03-15T07:59:31.232Z,15.15
2019-03-15T08:02:02.696Z,14.83
2019-03-15T08:04:35.963Z,17.45
2019-03-15T08:07:07.550Z,17.25
2019-03-15T08:09:39.084Z,16.70
2019-03-15T08:12:10.537Z,15.65
2019-03-15T08:14:42.009Z,14.87
2019-03-15T08:17:13.664Z,20.05
2019-03-15T08:19:45.532Z,21.15
2019-03-15T08:22:17.295Z,18.00
2019-03-15T08:24:51.700Z,15.60
2019-03-15T08:27:21.770Z,18.02
2019-03-15T08:29:53.472Z,19.12
2019-03-15T08:32:25.362Z,18.50
2019-03-15T08:34:57.008Z,15.58
2019-03-15T08:37:30.100Z,17.50
2019-03-15T08:40:01.888Z,17.15
2019-03-15T08:42:34.762Z,18.05
2019-03-15T08:45:09.897Z,17.47
2019-03-15T08:47:41.221Z,14.53
2019-03-15T08:50:15.805Z,17.55
2019-03-15T08:52:47.342Z,17.70
2019-03-15T08:55:19.080Z,20.75
2019-03-15T08:57:50.612Z,18.07
2019-03-15T09:00:22.497Z,16.07
2019-03-15T09:02:54.153Z,17.98
2019-03-15T09:05:25.709Z,16.65
2019-03-15T09:07:57.158Z,17.65
2019-03-15T09:10:28.925Z,18.57
2019-03-15T09:13:00.577Z,16.82
2019-03-15T09:18:05.530Z,21.40
2019-03-15T09:20:36.974Z,19.42
2019-03-15T09:23:08.830Z,18.90
2019-03-15T09:25:40.503Z,18.45
2019-03-15T09:28:11.966Z,17.73
2019-03-15T09:30:43.805Z,20.35
2019-03-15T09:33:15.582Z,17.02
2019-03-15T09:35:47.226Z,18.27
2019-03-15T09:38:19.093Z,20.45
2019-03-15T09:40:50.892Z,19.60
2019-03-15T09:43:22.526Z,16.77
2019-03-15T09:45:55.627Z,21.93
2019-03-15T09:48:27.284Z,21.85
2019-03-15T09:50:59.030Z,18.23
2019-03-15T09:53:30.774Z,17.25
2019-03-15T09:56:02.449Z,18.40
2019-03-15T09:58:34.186Z,21.10
2019-03-15T10:01:06.342Z,24.07
2019-03-15T10:03:37.832Z,24.80
2019-03-15T10:06:14.882Z,27.48
2019-03-15T10:08:42.889Z,21.40
2019-03-15T10:11:14.529Z,20.05
2019-03-15T10:13:46.407Z,19.50
2019-03-15T10:16:18.045Z,19.67
2019-03-15T10:18:50.624Z,20.23
2019-03-15T10:21:22.178Z,20.92
2019-03-15T10:23:53.938Z,20.62
2019-03-15T10:26:28.072Z,18.50
2019-03-15T10:28:59.622Z,21.73
2019-03-15T10:31:30.960Z,18.73
2019-03-15T10:34:05.690Z,21.30
2019-03-15T10:36:35.813Z,20.10
2019-03-15T10:39:07.877Z,18.20
2019-03-15T10:41:39.224Z,18.73
2019-03-15T10:44:11.211Z,21.13
2019-03-15T10:46:42.763Z,20.20
2019-03-15T10:49:14.816Z,19.67
2019-03-15T10:51:46.491Z,19.05
2019-03-15T10:54:18.334Z,17.92
2019-03-15T10:56:49.685Z,18.75
2019-03-15T10:59:21.258Z,21.62
2019-03-15T11:01:56.248Z,18.42
2019-03-15T11:04:28.042Z,16.17
2019-03-15T11:06:59.490Z,16.25
2019-03-15T11:09:31.368Z,17.10
2019-03-15T11:12:04.054Z,18.52
2019-03-15T11:14:35.812Z,21.15
2019-03-15T11:17:08.783Z,17.30
2019-03-15T11:19:40.660Z,17.73
2019-03-15T11:22:12.095Z,16.32
2019-03-15T11:24:44.179Z,15.68
2019-03-15T11:27:15.736Z,24.50
2019-03-15T11:29:47.288Z,17.07
2019-03-15T11:32:19.093Z,16.52
2019-03-15T11:34:50.909Z,19.27
2019-03-15T11:37:22.553Z,18.87
2019-03-15T11:39:54.208Z,17.00
2019-03-15T11:42:25.677Z,15.35
2019-03-15T11:44:57.558Z,27.90
2019-03-15T11:47:29.312Z,24.63
2019-03-15T11:50:00.955Z,22.35
2019-03-15T11:52:32.614Z,20.97
2019-03-15T11:55:05.083Z,23.02
2019-03-15T11:57:36.665Z,30.08
2019-03-15T12:00:16.453Z,32.67
2019-03-15T12:02:47.819Z,26.75
2019-03-15T12:05:19.495Z,29.90
2019-03-15T12:07:51.278Z,24.10
2019-03-15T12:10:23.226Z,19.17
2019-03-15T12:12:54.866Z,24.20
2019-03-15T12:15:26.829Z,21.27
2019-03-15T12:17:58.280Z,20.10
2019-03-15T12:20:31.283Z,18.35
2019-03-15T12:23:03.025Z,21.02
2019-03-15T12:25:34.709Z,18.92
2019-03-15T12:28:06.044Z,16.95
2019-03-15T12:30:37.811Z,23.60
2019-03-15T12:33:09.469Z,16.55
2019-03-15T12:35:41.310Z,18.70
2019-03-15T12:38:12.970Z,21.05
2019-03-15T12:40:44.423Z,17.15
2019-03-15T12:43:16.200Z,15.98
2019-03-15T12:45:47.856Z,31.17
2019-03-15T12:48:19.186Z,17.50
2019-03-15T12:50:50.964Z,35.03
2019-03-15T12:53:22.418Z,34.53
2019-03-15T12:55:56.230Z,17.65
2019-03-15T12:58:29.972Z,21.50
2019-03-15T13:01:01.285Z,22.23
2019-03-15T13:03:32.695Z,22.98
2019-03-15T13:06:04.371Z,21.23
2019-03-15T13:08:36.242Z,21.15
2019-03-15T13:11:08.115Z,17.60
2019-03-15T13:13:39.575Z,23.10
2019-03-15T13:16:11.432Z,21.40
2019-03-15T13:18:43.090Z,19.65
2019-03-15T13:21:14.951Z,20.92
2019-03-15T13:23:46.610Z,21.07
2019-03-15T13:26:18.250Z,18.67
2019-03-15T13:28:50.128Z,19.15
2019-03-15T13:31:21.884Z,17.55
2019-03-15T13:33:53.732Z,14.15
2019-03-15T13:36:26.215Z,17.07
2019-03-15T13:38:57.970Z,16.85
2019-03-15T13:41:29.539Z,18.90
2019-03-15T13:44:01.398Z,19.48
2019-03-15T13:46:33.054Z,17.80
2019-03-15T13:49:04.593Z,17.35
2019-03-15T13:51:36.479Z,19.90
2019-03-15T13:54:08.234Z,20.77
2019-03-15T13:56:39.787Z,20.32
2019-03-15T13:59:11.549Z,22.02
2019-03-15T14:01:43.415Z,22.77
2019-03-15T14:04:15.259Z,22.32
2019-03-15T14:06:47.072Z,27.00
2019-03-15T14:09:18.938Z,39.08
2019-03-15T14:11:50.741Z,41.37
2019-03-15T14:14:22.312Z,33.58
2019-03-15T14:16:54.076Z,28.62
2019-03-15T14:19:25.707Z,32.60
2019-03-15T14:21:58.633Z,29.95
2019-03-15T14:24:30.473Z,32.53
2019-03-15T14:27:02.117Z,46.48
2019-03-15T14:29:33.987Z,44.80
2019-03-15T14:32:06.928Z,30.70
2019-03-15T14:34:38.641Z,33.10
2019-03-15T14:37:10.855Z,31.35
2019-03-15T14:39:42.578Z,33.23
2019-03-15T14:42:14.392Z,29.40
2019-03-15T14:44:46.142Z,33.73
2019-03-15T14:47:17.721Z,30.48
2019-03-15T14:49:49.219Z,31.48
2019-03-15T14:52:21.035Z,29.50
2019-03-15T14:54:52.900Z,25.50
2019-03-15T14:57:24.573Z,32.28
2019-03-15T14:59:56.538Z,35.88
2019-03-15T15:02:28.295Z,30.57
2019-03-15T15:04:59.746Z,31.50
2019-03-15T15:07:31.494Z,31.60
2019-03-15T15:10:03.379Z,30.65
2019-03-15T15:12:34.858Z,31.10
2019-03-15T15:15:11.704Z,30.57
2019-03-15T15:17:43.463Z,37.67
2019-03-15T15:20:15.075Z,35.75
2019-03-15T15:22:46.981Z,36.90
2019-03-15T15:25:18.871Z,34.10
2019-03-15T15:28:03.487Z,37.95
2019-03-15T15:30:23.384Z,39.10
2019-03-15T15:32:55.042Z,41.75
2019-03-15T15:35:26.705Z,39.33
2019-03-15T15:37:58.552Z,42.48
2019-03-15T15:40:30.221Z,47.90
2019-03-15T15:43:01.981Z,38.85
2019-03-15T15:45:33.737Z,37.38
2019-03-15T15:48:05.598Z,39.78
2019-03-15T15:50:37.241Z,40.95
2019-03-15T15:53:11.142Z,39.38
2019-03-15T15:55:42.191Z,40.48
2019-03-15T15:58:18.184Z,38.30
2019-03-15T16:00:47.882Z,42.40
2019-03-15T16:03:19.420Z,71.85
2019-03-15T16:05:50.999Z,81.05
2019-03-15T16:08:22.839Z,73.17
2019-03-15T16:10:54.828Z,53.80
2019-03-15T16:13:26.581Z,41.35
2019-03-15T16:15:58.244Z,37.88
2019-03-15T16:18:30.040Z,40.73
2019-03-15T16:21:01.643Z,52.60
2019-03-15T16:23:33.217Z,53.68
2019-03-15T16:26:05.082Z,53.80
2019-03-15T16:28:36.720Z,53.65
2019-03-15T16:31:08.685Z,42.98
2019-03-15T16:33:40.362Z,39.55
2019-03-15T16:36:11.915Z,43.65
2019-03-15T16:38:43.775Z,40.43
2019-03-15T16:41:15.433Z,41.05
2019-03-15T16:43:46.988Z,39.92
2019-03-15T16:46:18.834Z,36.75
2019-03-15T16:48:51.512Z,40.48
2019-03-15T16:51:24.088Z,40.83
2019-03-15T16:53:55.647Z,40.65
2019-03-15T16:56:27.525Z,42.38
2019-03-15T16:58:58.999Z,40.70
2019-03-15T17:01:30.736Z,41.25
2019-03-15T17:04:02.395Z,41.77
2019-03-15T17:06:33.968Z,41.70
2019-03-15T17:09:07.129Z,44.10
2019-03-15T17:11:38.798Z,46.25
2019-03-15T17:14:10.570Z,47.48
2019-03-15T17:16:42.425Z,45.05
2019-03-15T17:19:13.876Z,46.60
2019-03-15T17:21:45.841Z,45.70
2019-03-15T17:24:17.485Z,46.95
2019-03-15T17:26:51.457Z,42.03
2019-03-15T17:29:22.253Z,42.78
2019-03-15T17:31:54.015Z,41.60
2019-03-15T17:34:25.668Z,40.15
2019-03-15T17:37:06.677Z,41.28
2019-03-15T17:39:31.117Z,42.05
2019-03-15T17:42:03.408Z,42.45
2019-03-15T17:44:35.465Z,40.45
2019-03-15T17:47:07.003Z,44.38
2019-03-15T17:49:38.784Z,42.17
2019-03-15T17:52:10.373Z,48.80
2019-03-15T17:54:42.201Z,42.43
2019-03-15T17:57:13.867Z,40.85
2019-03-15T18:00:01.085Z,43.35
2019-03-15T18:02:33.178Z,50.60
2019-03-15T18:05:05.832Z,50.85
2019-03-15T18:07:37.289Z,50.00
2019-03-15T18:10:09.487Z,47.27
2019-03-15T18:12:41.019Z,48.28
2019-03-15T18:15:12.732Z,51.50
2019-03-15T18:17:44.534Z,49.53
2019-03-15T18:20:16.149Z,53.40
2019-03-15T18:22:48.874Z,54.10
2019-03-15T18:25:20.372Z,53.65
2019-03-15T18:27:52.065Z,49.18
2019-03-15T18:30:23.950Z,51.00
2019-03-15T18:32:55.501Z,56.42
2019-03-15T18:35:33.733Z,55.23
2019-03-15T18:38:01.018Z,52.95
2019-03-15T18:40:32.514Z,51.08
2019-03-15T18:43:04.399Z,60.92
2019-03-15T18:45:35.935Z,53.48
2019-03-15T18:48:07.582Z,49.53
2019-03-15T18:50:39.454Z,57.43
2019-03-15T18:53:12.237Z,54.63
2019-03-15T18:55:43.883Z,54.55
2019-03-15T18:58:15.557Z,55.52
2019-03-15T19:00:47.290Z,54.05
2019-03-15T19:03:18.764Z,52.40
2019-03-15T19:05:50.514Z,54.95
2019-03-15T19:08:23.202Z,52.88
2019-03-15T19:10:54.863Z,53.20
2019-03-15T19:13:26.310Z,58.83
2019-03-15T19:15:58.090Z,57.67
2019-03-15T19:18:29.529Z,55.83
2019-03-15T19:21:04.108Z,63.15
2019-03-15T19:23:41.539Z,58.07
2019-03-15T19:26:13.402Z,59.27
2019-03-15T19:28:45.061Z,61.10
2019-03-15T19:31:16.620Z,59.87
2019-03-15T19:33:48.050Z,58.77
2019-03-15T19:36:19.736Z,61.47
2019-03-15T19:38:51.712Z,62.13
2019-03-15T19:41:23.074Z,62.47
2019-03-15T19:43:55.019Z,58.68
2019-03-15T19:46:26.654Z,60.00
2019-03-15T19:48:58.192Z,56.80
2019-03-15T19:51:29.624Z,61.28
2019-03-15T19:54:01.420Z,61.58
2019-03-15T19:56:33.188Z,62.80
2019-03-15T19:59:04.839Z,57.13
2019-03-15T20:01:36.703Z,65.15
2019-03-15T20:04:08.381Z,63.35
2019-03-15T20:06:40.224Z,65.77
2019-03-15T20:09:11.965Z,63.57
2019-03-15T20:11:43.533Z,66.87
2019-03-15T20:14:15.229Z,69.60
2019-03-15T20:16:46.953Z,74.27
2019-03-15T20:19:18.406Z,75.70
2019-03-15T20:21:50.165Z,77.10
2019-03-15T20:24:21.820Z,77.63
2019-03-15T20:26:53.467Z,76.70
2019-03-15T20:29:25.240Z,78.27
2019-03-15T20:31:56.684Z,80.67
2019-03-15T20:34:28.325Z,74.53
2019-03-15T20:36:59.900Z,78.00
2019-03-15T20:39:31.887Z,77.30
2019-03-15T20:42:03.319Z,71.70
2019-03-15T20:44:35.206Z,70.73
2019-03-15T20:47:07.070Z,84.13
2019-03-15T20:49:38.494Z,81.03
2019-03-15T20:52:10.147Z,87.90
2019-03-15T20:54:41.992Z,81.20
2019-03-15T20:57:13.573Z,86.83
2019-03-15T20:59:45.217Z,84.27
2019-03-15T21:02:16.856Z,100.03
2019-03-15T21:04:49.457Z,90.17
2019-03-15T21:07:21.092Z,98.40
2019-03-15T21:09:52.769Z,111.20
2019-03-15T21:12:24.425Z,117.00
2019-03-15T21:14:56.180Z,117.00
2019-03-15T21:17:27.735Z,99.20
2019-03-15T21:19:59.626Z,93.73
2019-03-15T21:22:32.679Z,432.27
2019-03-15T21:25:04.658Z,194.80
2019-03-15T21:27:37.895Z,172.90
2019-03-15T21:30:20.558Z,135.43
2019-03-15T21:32:52.118Z,111.03
2019-03-15T21:35:23.576Z,114.00
2019-03-15T21:37:55.211Z,111.53
2019-03-15T21:40:26.933Z,112.77
2019-03-15T21:42:58.514Z,116.60
2019-03-15T21:45:30.287Z,107.67
2019-03-15T21:48:01.947Z,98.43
2019-03-15T21:50:33.706Z,105.10
2019-03-15T21:53:05.314Z,95.30
2019-03-15T21:55:37.016Z,95.07
2019-03-15T21:58:08.699Z,91.77
2019-03-15T22:00:40.353Z,92.97
2019-03-15T22:03:11.910Z,93.10
2019-03-15T22:05:43.360Z,87.17
2019-03-15T22:08:15.018Z,94.93
2019-03-15T22:10:48.220Z,95.70
2019-03-15T22:13:19.665Z,103.30
2019-03-15T22:15:52.084Z,106.80
2019-03-15T22:18:23.595Z,100.57
2019-03-15T22:20:55.352Z,96.70
2019-03-15T22:23:28.192Z,102.63
2019-03-15T22:26:00.009Z,101.80
2019-03-15T22:28:34.214Z,111.13
2019-03-15T22:33:39.866Z,103.37
2019-03-15T22:36:11.420Z,96.80
2019-03-15T22:38:43.400Z,98.03
2019-03-15T22:41:14.954Z,98.17
2019-03-15T22:43:46.921Z,98.57
2019-03-15T22:46:18.378Z,100.17
2019-03-15T22:48:50.132Z,97.07
2019-03-15T22:51:21.895Z,104.00
2019-03-15T22:53:53.546Z,94.90
2019-03-15T22:56:24.896Z,102.30
2019-03-15T22:58:56.692Z,100.93
2019-03-15T23:01:30.481Z,91.87
2019-03-15T23:04:01.600Z,89.07
2019-03-15T23:06:34.519Z,91.03
2019-03-15T23:09:07.560Z,91.53
2019-03-15T23:14:11.720Z,116.20
2019-03-15T23:16:43.273Z,108.97
2019-03-15T23:19:14.826Z,118.67
2019-03-15T23:21:47.409Z,105.63
2019-03-15T23:24:19.044Z,125.53
2019-03-15T23:26:50.735Z,121.00
2019-03-15T23:29:22.362Z,111.50
2019-03-15T23:31:55.359Z,101.43
2019-03-15T23:34:26.917Z,102.83
2019-03-15T23:36:58.563Z,112.07
2019-03-15T23:39:30.250Z,107.60
2019-03-15T23:42:01.767Z,106.80
2019-03-15T23:44:33.718Z,121.47
2019-03-15T23:47:05.153Z,188.53
2019-03-15T23:49:36.660Z,205.73
2019-03-15T23:52:08.428Z,212.97
2019-03-15T23:54:40.262Z,211.30
2019-03-15T23:57:11.832Z,192.47
2019-03-15T23:59:43.588Z,172.87
